sensor_id;sensor_type;location;lat;lon;timestamp;pressure;altitude;pressure_sealevel;temperature;humidity
27304;BME280;14791;52.392;13.092;2023-08-06T00:00:53;100379.55;;;24.04;44.95
27304;BME280;14791;52.392;13.092;2023-08-06T00:03:22;100381.25;;;24.05;45.06
27304;BME280;14791;52.392;13.092;2023-08-06T00:05:51;100376.51;;;24.03;45.12
27304;BME280;14791;52.392;13.092;2023-08-06T00:08:19;100375.14;;;24.03;45.17
27304;BME280;14791;52.392;13.092;2023-08-06T00:10:48;100375.67;;;24.02;45.25
27304;BME280;14791;52.392;13.092;2023-08-06T00:13:17;100376.19;;;24.02;45.24
27304;BME280;14791;52.392;13.092;2023-08-06T00:15:47;100375.01;;;24.00;45.37
27304;BME280;14791;52.392;13.092;2023-08-06T00:18:15;100371.09;;;23.98;45.42
27304;BME280;14791;52.392;13.092;2023-08-06T00:20:44;100369.55;;;24.00;45.49
27304;BME280;14791;52.392;13.092;2023-08-06T00:23:13;100364.62;;;23.99;45.52
27304;BME280;14791;52.392;13.092;2023-08-06T00:25:42;100359.17;;;23.99;45.62
27304;BME280;14791;52.392;13.092;2023-08-06T00:28:11;100361.02;;;23.99;45.66
27304;BME280;14791;52.392;13.092;2023-08-06T00:30:40;100353.05;;;23.97;45.75
27304;BME280;14791;52.392;13.092;2023-08-06T00:33:09;100360.40;;;23.97;45.74
27304;BME280;14791;52.392;13.092;2023-08-06T00:35:38;100359.53;;;23.96;45.73
27304;BME280;14791;52.392;13.092;2023-08-06T00:38:07;100359.22;;;23.95;45.84
27304;BME280;14791;52.392;13.092;2023-08-06T00:40:36;100356.67;;;23.94;45.94
27304;BME280;14791;52.392;13.092;2023-08-06T00:43:05;100354.16;;;23.92;46.01
27304;BME280;14791;52.392;13.092;2023-08-06T00:45:36;100349.72;;;23.91;46.08
27304;BME280;14791;52.392;13.092;2023-08-06T00:48:06;100348.74;;;23.88;46.16
27304;BME280;14791;52.392;13.092;2023-08-06T00:50:35;100345.36;;;23.86;46.25
27304;BME280;14791;52.392;13.092;2023-08-06T00:53:04;100343.33;;;23.84;46.34
27304;BME280;14791;52.392;13.092;2023-08-06T00:55:33;100343.33;;;23.84;46.39
27304;BME280;14791;52.392;13.092;2023-08-06T00:58:02;100337.56;;;23.83;46.48
27304;BME280;14791;52.392;13.092;2023-08-06T01:00:32;100337.56;;;23.83;46.54
27304;BME280;14791;52.392;13.092;2023-08-06T01:03:01;100333.13;;;23.82;46.60
27304;BME280;14791;52.392;13.092;2023-08-06T01:05:30;100333.66;;;23.82;46.64
27304;BME280;14791;52.392;13.092;2023-08-06T01:08:23;100332.81;;;23.81;46.73
27304;BME280;14791;52.392;13.092;2023-08-06T01:14:01;100336.64;;;23.76;46.82
27304;BME280;14791;52.392;13.092;2023-08-06T01:16:30;100335.33;;;23.68;46.93
27304;BME280;14791;52.392;13.092;2023-08-06T01:18:59;100329.56;;;23.67;47.03
27304;BME280;14791;52.392;13.092;2023-08-06T01:21:28;100322.05;;;23.69;47.14
27304;BME280;14791;52.392;13.092;2023-08-06T01:23:57;100325.61;;;23.69;47.11
27304;BME280;14791;52.392;13.092;2023-08-06T01:26:35;100319.98;;;23.71;47.17
27304;BME280;14791;52.392;13.092;2023-08-06T01:31:40;100316.72;;;23.71;47.23
27304;BME280;14791;52.392;13.092;2023-08-06T01:34:20;100307.18;;;23.71;47.29
27304;BME280;14791;52.392;13.092;2023-08-06T01:36:43;100308.02;;;23.72;47.34
27304;BME280;14791;52.392;13.092;2023-08-06T01:39:12;100304.45;;;23.71;47.43
27304;BME280;14791;52.392;13.092;2023-08-06T01:41:41;100297.11;;;23.72;47.50
27304;BME280;14791;52.392;13.092;2023-08-06T01:44:10;100301.55;;;23.73;47.55
27304;BME280;14791;52.392;13.092;2023-08-06T01:46:39;100294.73;;;23.73;47.53
27304;BME280;14791;52.392;13.092;2023-08-06T01:49:08;100293.03;;;23.72;47.57
27304;BME280;14791;52.392;13.092;2023-08-06T01:51:37;100297.11;;;23.72;47.64
27304;BME280;14791;52.392;13.092;2023-08-06T01:54:06;100296.59;;;23.72;47.70
27304;BME280;14791;52.392;13.092;2023-08-06T01:56:35;100294.39;;;23.72;47.70
27304;BME280;14791;52.392;13.092;2023-08-06T01:59:04;100294.39;;;23.72;47.77
27304;BME280;14791;52.392;13.092;2023-08-06T02:01:33;100293.03;;;23.72;47.82
27304;BME280;14791;52.392;13.092;2023-08-06T02:04:02;100293.55;;;23.71;47.76
27304;BME280;14791;52.392;13.092;2023-08-06T02:06:31;100290.30;;;23.72;47.78
27304;BME280;14791;52.392;13.092;2023-08-06T02:08:59;100297.30;;;23.70;47.84
27304;BME280;14791;52.392;13.092;2023-08-06T02:11:28;100290.16;;;23.69;47.91
27304;BME280;14791;52.392;13.092;2023-08-06T02:13:57;100290.69;;;23.69;47.90
27304;BME280;14791;52.392;13.092;2023-08-06T02:16:26;100281.85;;;23.67;47.96
27304;BME280;14791;52.392;13.092;2023-08-06T02:18:55;100280.18;;;23.66;48.05
27304;BME280;14791;52.392;13.092;2023-08-06T02:21:24;100288.19;;;23.63;48.01
27304;BME280;14791;52.392;13.092;2023-08-06T02:23:55;100278.86;;;23.62;48.04
27304;BME280;14791;52.392;13.092;2023-08-06T02:26:24;100274.11;;;23.60;48.13
27304;BME280;14791;52.392;13.092;2023-08-06T02:28:53;100262.89;;;23.59;48.09
27304;BME280;14791;52.392;13.092;2023-08-06T02:31:22;100265.48;;;23.56;48.16
27304;BME280;14791;52.392;13.092;2023-08-06T02:33:51;100261.05;;;23.55;48.21
27304;BME280;14791;52.392;13.092;2023-08-06T02:36:21;100261.45;;;23.52;48.31
27304;BME280;14791;52.392;13.092;2023-08-06T02:38:51;100261.09;;;23.51;48.49
27304;BME280;14791;52.392;13.092;2023-08-06T02:41:20;100256.38;;;23.49;48.54
27304;BME280;14791;52.392;13.092;2023-08-06T02:43:49;100257.09;;;23.47;48.70
27304;BME280;14791;52.392;13.092;2023-08-06T02:46:18;100250.45;;;23.45;48.78
27304;BME280;14791;52.392;13.092;2023-08-06T02:48:47;100246.05;;;23.44;48.93
27304;BME280;14791;52.392;13.092;2023-08-06T02:51:17;100240.25;;;23.43;49.08
27304;BME280;14791;52.392;13.092;2023-08-06T02:53:48;100237.22;;;23.42;49.09
27304;BME280;14791;52.392;13.092;2023-08-06T02:56:17;100236.38;;;23.42;49.16
27304;BME280;14791;52.392;13.092;2023-08-06T02:58:51;100232.12;;;23.39;49.14
27304;BME280;14791;52.392;13.092;2023-08-06T03:01:24;100220.91;;;23.38;49.22
27304;BME280;14791;52.392;13.092;2023-08-06T03:03:56;100229.27;;;23.36;49.26
27304;BME280;14791;52.392;13.092;2023-08-06T03:06:26;100227.59;;;23.35;49.31
27304;BME280;14791;52.392;13.092;2023-08-06T03:08:57;100226.62;;;23.32;49.43
27304;BME280;14791;52.392;13.092;2023-08-06T03:11:26;100231.72;;;23.31;49.46
27304;BME280;14791;52.392;13.092;2023-08-06T03:13:57;100227.50;;;23.29;49.52
27304;BME280;14791;52.392;13.092;2023-08-06T03:16:26;100226.52;;;23.26;49.56
27304;BME280;14791;52.392;13.092;2023-08-06T03:18:55;100224.50;;;23.24;49.68
27304;BME280;14791;52.392;13.092;2023-08-06T03:21:24;100222.83;;;23.23;49.73
27304;BME280;14791;52.392;13.092;2023-08-06T03:23:53;100217.55;;;23.21;49.85
27304;BME280;14791;52.392;13.092;2023-08-06T03:26:24;100210.92;;;23.20;49.90
27304;BME280;14791;52.392;13.092;2023-08-06T03:28:53;100211.97;;;23.19;49.98
27304;BME280;14791;52.392;13.092;2023-08-06T03:31:22;100205.86;;;23.17;50.01
27304;BME280;14791;52.392;13.092;2023-08-06T03:33:51;100211.00;;;23.16;50.12
27304;BME280;14791;52.392;13.092;2023-08-06T03:36:22;100213.37;;;23.14;50.13
27304;BME280;14791;52.392;13.092;2023-08-06T03:38:51;100207.27;;;23.12;50.27
27304;BME280;14791;52.392;13.092;2023-08-06T03:41:20;100197.08;;;23.10;50.34
27304;BME280;14791;52.392;13.092;2023-08-06T03:43:50;100201.16;;;23.10;50.40
27304;BME280;14791;52.392;13.092;2023-08-06T03:46:20;100198.12;;;23.09;50.52
27304;BME280;14791;52.392;13.092;2023-08-06T03:48:49;100203.25;;;23.08;50.52
27304;BME280;14791;52.392;13.092;2023-08-06T03:51:18;100203.44;;;23.07;50.57
27304;BME280;14791;52.392;13.092;2023-08-06T03:53:47;100192.72;;;23.05;50.61
27304;BME280;14791;52.392;13.092;2023-08-06T03:56:16;100191.88;;;23.05;50.70
27304;BME280;14791;52.392;13.092;2023-08-06T03:58:45;100185.25;;;23.03;50.80
27304;BME280;14791;52.392;13.092;2023-08-06T04:01:14;100179.80;;;23.03;50.87
27304;BME280;14791;52.392;13.092;2023-08-06T04:03:46;100181.51;;;23.04;50.86
27304;BME280;14791;52.392;13.092;2023-08-06T04:06:15;100175.09;;;23.01;50.95
27304;BME280;14791;52.392;13.092;2023-08-06T04:08:44;100172.37;;;23.01;51.01
27304;BME280;14791;52.392;13.092;2023-08-06T04:11:13;100169.95;;;23.02;51.01
27304;BME280;14791;52.392;13.092;2023-08-06T04:13:43;100167.23;;;23.02;51.02
27304;BME280;14791;52.392;13.092;2023-08-06T04:16:12;100169.95;;;23.02;51.01
27304;BME280;14791;52.392;13.092;2023-08-06T04:18:42;100165.87;;;23.02;51.05
27304;BME280;14791;52.392;13.092;2023-08-06T04:21:11;100161.47;;;23.01;51.00
27304;BME280;14791;52.392;13.092;2023-08-06T04:23:41;100155.50;;;23.02;50.97
27304;BME280;14791;52.392;13.092;2023-08-06T04:26:10;100156.03;;;23.01;50.97
27304;BME280;14791;52.392;13.092;2023-08-06T04:28:39;100150.58;;;23.01;50.99
27304;BME280;14791;52.392;13.092;2023-08-06T04:31:09;100145.13;;;23.01;51.01
27304;BME280;14791;52.392;13.092;2023-08-06T04:33:40;100142.41;;;23.01;51.08
27304;BME280;14791;52.392;13.092;2023-08-06T04:36:11;100147.86;;;23.01;51.08
27304;BME280;14791;52.392;13.092;2023-08-06T04:38:40;100142.59;;;23.00;51.10
27304;BME280;14791;52.392;13.092;2023-08-06T04:41:11;100138.33;;;23.01;51.12
27304;BME280;14791;52.392;13.092;2023-08-06T04:43:40;100136.09;;;23.01;51.15
27304;BME280;14791;52.392;13.092;2023-08-06T04:46:10;100137.28;;;23.02;51.16
27304;BME280;14791;52.392;13.092;2023-08-06T04:48:39;100130.47;;;23.02;51.19
27304;BME280;14791;52.392;13.092;2023-08-06T04:51:08;100124.50;;;23.03;51.28
27304;BME280;14791;52.392;13.092;2023-08-06T04:53:37;100125.68;;;23.04;51.25
27304;BME280;14791;52.392;13.092;2023-08-06T04:56:05;100126.52;;;23.05;51.23
27304;BME280;14791;52.392;13.092;2023-08-06T04:58:34;100121.91;;;23.05;51.20
27304;BME280;14791;52.392;13.092;2023-08-06T05:01:03;100121.91;;;23.05;51.30
27304;BME280;14791;52.392;13.092;2023-08-06T05:03:32;100116.28;;;23.07;51.27
27304;BME280;14791;52.392;13.092;2023-08-06T05:06:01;100114.39;;;23.07;51.15
27304;BME280;14791;52.392;13.092;2023-08-06T05:08:30;100117.12;;;23.07;51.13
27304;BME280;14791;52.392;13.092;2023-08-06T05:10:59;100115.44;;;23.06;51.13
27304;BME280;14791;52.392;13.092;2023-08-06T05:13:28;100104.86;;;23.07;51.12
27304;BME280;14791;52.392;13.092;2023-08-06T05:15:57;100108.11;;;23.07;51.15
27304;BME280;14791;52.392;13.092;2023-08-06T05:18:26;100101.83;;;23.06;51.12
27304;BME280;14791;52.392;13.092;2023-08-06T05:20:55;100090.41;;;23.07;51.14
27304;BME280;14791;52.392;13.092;2023-08-06T05:23:24;100081.40;;;23.06;51.13
27304;BME280;14791;52.392;13.092;2023-08-06T05:25:53;100079.20;;;23.06;51.15
27304;BME280;14791;52.392;13.092;2023-08-06T05:28:22;100076.48;;;23.06;51.11
27304;BME280;14791;52.392;13.092;2023-08-06T05:30:51;100073.55;;;23.07;51.08
27304;BME280;14791;52.392;13.092;2023-08-06T05:33:20;100071.88;;;23.06;51.07
27304;BME280;14791;52.392;13.092;2023-08-06T05:35:49;100077.31;;;23.06;51.08
27304;BME280;14791;52.392;13.092;2023-08-06T05:38:18;100078.68;;;23.06;51.05
27304;BME280;14791;52.392;13.092;2023-08-06T05:40:47;100080.04;;;23.06;51.09
27304;BME280;14791;52.392;13.092;2023-08-06T05:43:17;100081.40;;;23.06;51.13
27304;BME280;14791;52.392;13.092;2023-08-06T05:45:46;100077.97;;;23.08;51.11
27304;BME280;14791;52.392;13.092;2023-08-06T05:48:15;100082.89;;;23.09;51.10
27304;BME280;14791;52.392;13.092;2023-08-06T05:50:44;100088.13;;;23.10;51.12
27304;BME280;14791;52.392;13.092;2023-08-06T05:53:13;100091.20;;;23.11;50.92
27304;BME280;14791;52.392;13.092;2023-08-06T05:55:42;100087.82;;;23.09;50.75
27304;BME280;14791;52.392;13.092;2023-08-06T05:58:11;100083.78;;;23.05;50.81
27304;BME280;14791;52.392;13.092;2023-08-06T06:00:40;100091.30;;;23.03;51.01
27304;BME280;14791;52.392;13.092;2023-08-06T06:03:09;100090.45;;;23.03;50.98
27304;BME280;14791;52.392;13.092;2023-08-06T06:05:39;100090.14;;;23.02;51.05
27304;BME280;14791;52.392;13.092;2023-08-06T06:08:07;100084.17;;;23.02;51.05
27304;BME280;14791;52.392;13.092;2023-08-06T06:10:36;100087.20;;;23.03;51.12
27304;BME280;14791;52.392;13.092;2023-08-06T06:13:05;100072.05;;;23.05;51.18
27304;BME280;14791;52.392;13.092;2023-08-06T06:15:34;100076.27;;;23.07;51.37
27304;BME280;14791;52.392;13.092;2023-08-06T06:18:03;100076.92;;;23.09;51.48
27304;BME280;14791;52.392;13.092;2023-08-06T06:20:32;100064.62;;;23.13;51.43
27304;BME280;14791;52.392;13.092;2023-08-06T06:23:01;100072.70;;;23.18;51.66
27304;BME280;14791;52.392;13.092;2023-08-06T06:25:30;100069.41;;;23.22;51.60
27304;BME280;14791;52.392;13.092;2023-08-06T06:27:59;100063.06;;;23.26;51.76
27304;BME280;14791;52.392;13.092;2023-08-06T06:30:28;100065.66;;;23.34;51.82
27304;BME280;14791;52.392;13.092;2023-08-06T06:32:57;100069.69;;;23.38;51.63
27304;BME280;14791;52.392;13.092;2023-08-06T06:35:26;100058.73;;;23.42;51.61
27304;BME280;14791;52.392;13.092;2023-08-06T06:37:55;100057.94;;;23.48;51.54
27304;BME280;14791;52.392;13.092;2023-08-06T06:40:24;100060.91;;;23.53;51.50
27304;BME280;14791;52.392;13.092;2023-08-06T06:42:53;100054.69;;;23.60;51.26
27304;BME280;14791;52.392;13.092;2023-08-06T06:45:21;100053.27;;;23.64;51.33
27304;BME280;14791;52.392;13.092;2023-08-06T06:47:50;100061.17;;;23.69;51.43
27304;BME280;14791;52.392;13.092;2023-08-06T06:50:19;100063.16;;;23.75;51.33
27304;BME280;14791;52.392;13.092;2023-08-06T06:52:48;100064.95;;;23.79;51.33
27304;BME280;14791;52.392;13.092;2023-08-06T06:55:17;100063.84;;;23.84;51.01
27304;BME280;14791;52.392;13.092;2023-08-06T06:57:46;100062.09;;;23.87;50.73
27304;BME280;14791;52.392;13.092;2023-08-06T07:00:15;100067.86;;;23.88;50.58
27304;BME280;14791;52.392;13.092;2023-08-06T07:02:44;100067.86;;;23.88;50.58
27304;BME280;14791;52.392;13.092;2023-08-06T07:05:13;100061.57;;;23.88;50.58
27304;BME280;14791;52.392;13.092;2023-08-06T07:07:41;100067.86;;;23.88;50.61
27304;BME280;14791;52.392;13.092;2023-08-06T07:10:10;100064.42;;;23.90;50.63
27304;BME280;14791;52.392;13.092;2023-08-06T07:12:39;100069.16;;;23.92;50.80
27304;BME280;14791;52.392;13.092;2023-08-06T07:15:09;100070.13;;;23.95;50.89
27304;BME280;14791;52.392;13.092;2023-08-06T07:17:38;100068.16;;;24.00;50.88
27304;BME280;14791;52.392;13.092;2023-08-06T07:20:07;100072.50;;;24.05;50.80
27304;BME280;14791;52.392;13.092;2023-08-06T07:22:36;100067.81;;;24.10;50.81
27304;BME280;14791;52.392;13.092;2023-08-06T07:25:06;100067.52;;;24.15;50.53
27304;BME280;14791;52.392;13.092;2023-08-06T07:27:35;100073.97;;;24.18;50.41
27304;BME280;14791;52.392;13.092;2023-08-06T07:30:05;100071.67;;;24.22;50.40
27304;BME280;14791;52.392;13.092;2023-08-06T07:32:34;100070.95;;;24.24;50.45
27304;BME280;14791;52.392;13.092;2023-08-06T07:35:03;100074.64;;;24.27;50.33
27304;BME280;14791;52.392;13.092;2023-08-06T07:37:32;100070.02;;;24.28;50.27
27304;BME280;14791;52.392;13.092;2023-08-06T07:40:01;100076.12;;;24.30;50.37
27304;BME280;14791;52.392;13.092;2023-08-06T07:42:30;100065.02;;;24.31;50.56
27304;BME280;14791;52.392;13.092;2023-08-06T07:44:59;100066.69;;;24.32;50.46
27304;BME280;14791;52.392;13.092;2023-08-06T07:47:28;100066.31;;;24.35;50.52
27304;BME280;14791;52.392;13.092;2023-08-06T07:49:57;100063.48;;;24.39;50.69
27304;BME280;14791;52.392;13.092;2023-08-06T07:52:26;100064.77;;;24.44;50.59
27304;BME280;14791;52.392;13.092;2023-08-06T07:54:55;100060.63;;;24.48;50.59
27304;BME280;14791;52.392;13.092;2023-08-06T07:57:24;100060.86;;;24.53;50.70
27304;BME280;14791;52.392;13.092;2023-08-06T07:59:52;100066.67;;;24.60;50.61
27304;BME280;14791;52.392;13.092;2023-08-06T08:02:21;100068.38;;;24.68;50.61
27304;BME280;14791;52.392;13.092;2023-08-06T08:04:50;100063.48;;;24.74;50.53
27304;BME280;14791;52.392;13.092;2023-08-06T08:07:20;100065.72;;;24.81;50.16
27304;BME280;14791;52.392;13.092;2023-08-06T08:09:49;100061.85;;;24.87;50.10
27304;BME280;14791;52.392;13.092;2023-08-06T08:12:18;100059.23;;;24.89;50.13
27304;BME280;14791;52.392;13.092;2023-08-06T08:14:46;100063.45;;;24.92;50.08
27304;BME280;14791;52.392;13.092;2023-08-06T08:17:15;100063.02;;;24.95;50.06
27304;BME280;14791;52.392;13.092;2023-08-06T08:19:44;100064.20;;;24.96;49.91
27304;BME280;14791;52.392;13.092;2023-08-06T08:22:13;100057.81;;;25.00;49.76
27304;BME280;14791;52.392;13.092;2023-08-06T08:24:42;100061.80;;;25.04;49.89
27304;BME280;14791;52.392;13.092;2023-08-06T08:27:11;100052.45;;;25.09;49.65
27304;BME280;14791;52.392;13.092;2023-08-06T08:29:40;100049.64;;;25.13;50.04
27304;BME280;14791;52.392;13.092;2023-08-06T08:32:09;100051.78;;;25.18;49.88
27304;BME280;14791;52.392;13.092;2023-08-06T08:34:38;100049.80;;;25.22;49.96
27304;BME280;14791;52.392;13.092;2023-08-06T08:37:07;100040.79;;;25.29;49.91
27304;BME280;14791;52.392;13.092;2023-08-06T08:39:36;100041.00;;;25.34;49.61
27304;BME280;14791;52.392;13.092;2023-08-06T08:42:06;100033.64;;;25.34;49.41
27304;BME280;14791;52.392;13.092;2023-08-06T08:44:35;100031.20;;;25.35;49.22
27304;BME280;14791;52.392;13.092;2023-08-06T08:47:08;100032.38;;;25.37;49.51
27304;BME280;14791;52.392;13.092;2023-08-06T08:49:37;100028.91;;;25.39;49.41
27304;BME280;14791;52.392;13.092;2023-08-06T08:52:07;100025.12;;;25.40;48.99
27304;BME280;14791;52.392;13.092;2023-08-06T08:54:38;100017.98;;;25.39;49.00
27304;BME280;14791;52.392;13.092;2023-08-06T08:57:08;100026.18;;;25.39;48.94
27304;BME280;14791;52.392;13.092;2023-08-06T08:59:37;100015.98;;;25.37;48.83
27304;BME280;14791;52.392;13.092;2023-08-06T09:02:08;100011.24;;;25.35;48.80
27304;BME280;14791;52.392;13.092;2023-08-06T09:04:39;100012.40;;;25.30;48.86
27304;BME280;14791;52.392;13.092;2023-08-06T09:07:10;100013.85;;;25.25;49.37
27304;BME280;14791;52.392;13.092;2023-08-06T09:09:41;100009.75;;;25.25;49.52
27304;BME280;14791;52.392;13.092;2023-08-06T09:12:19;100005.99;;;25.27;49.50
27304;BME280;14791;52.392;13.092;2023-08-06T09:14:49;99992.73;;;25.30;49.44
27304;BME280;14791;52.392;13.092;2023-08-06T09:17:20;100000.01;;;25.34;49.36
27304;BME280;14791;52.392;13.092;2023-08-06T09:19:49;99993.28;;;25.36;49.19
27304;BME280;14791;52.392;13.092;2023-08-06T09:22:18;99990.66;;;25.39;49.20
27304;BME280;14791;52.392;13.092;2023-08-06T09:24:47;99988.55;;;25.41;48.95
27304;BME280;14791;52.392;13.092;2023-08-06T09:27:17;99991.59;;;25.42;48.82
27304;BME280;14791;52.392;13.092;2023-08-06T09:29:46;99985.59;;;25.42;48.80
27304;BME280;14791;52.392;13.092;2023-08-06T09:32:15;99982.45;;;25.39;49.01
27304;BME280;14791;52.392;13.092;2023-08-06T09:34:45;99977.41;;;25.36;49.08
27304;BME280;14791;52.392;13.092;2023-08-06T09:37:14;99972.34;;;25.33;48.85
27304;BME280;14791;52.392;13.092;2023-08-06T09:39:43;99971.83;;;25.27;48.64
27304;BME280;14791;52.392;13.092;2023-08-06T09:42:14;99968.89;;;25.21;48.59
27304;BME280;14791;52.392;13.092;2023-08-06T09:44:43;99971.34;;;25.16;48.60
27304;BME280;14791;52.392;13.092;2023-08-06T09:47:12;99970.73;;;25.08;48.58
27304;BME280;14791;52.392;13.092;2023-08-06T09:49:43;99959.48;;;25.00;48.90
27304;BME280;14791;52.392;13.092;2023-08-06T09:52:13;99963.33;;;24.95;48.87
27304;BME280;14791;52.392;13.092;2023-08-06T09:54:44;99967.55;;;24.91;48.97
27304;BME280;14791;52.392;13.092;2023-08-06T09:57:15;99955.34;;;24.87;49.01
27304;BME280;14791;52.392;13.092;2023-08-06T09:59:44;99960.50;;;24.86;49.11
27304;BME280;14791;52.392;13.092;2023-08-06T10:02:15;99956.59;;;24.84;49.22
27304;BME280;14791;52.392;13.092;2023-08-06T10:04:45;99957.77;;;24.86;49.38
27304;BME280;14791;52.392;13.092;2023-08-06T10:07:14;99952.61;;;24.87;49.32
27304;BME280;14791;52.392;13.092;2023-08-06T10:09:45;99957.98;;;24.91;49.25
27304;BME280;14791;52.392;13.092;2023-08-06T10:12:14;99951.80;;;24.93;49.18
27304;BME280;14791;52.392;13.092;2023-08-06T10:14:46;99947.08;;;24.97;49.18
27304;BME280;14791;52.392;13.092;2023-08-06T10:17:17;99942.56;;;25.00;49.34
27304;BME280;14791;52.392;13.092;2023-08-06T10:19:46;99938.87;;;25.04;49.28
27304;BME280;14791;52.392;13.092;2023-08-06T10:22:18;99940.78;;;25.10;49.25
27304;BME280;14791;52.392;13.092;2023-08-06T10:24:50;99938.56;;;25.16;49.28
27304;BME280;14791;52.392;13.092;2023-08-06T10:27:28;99941.87;;;25.22;49.13
27304;BME280;14791;52.392;13.092;2023-08-06T10:29:53;99931.38;;;25.26;48.73
27304;BME280;14791;52.392;13.092;2023-08-06T10:32:41;99930.71;;;25.31;48.54
27304;BME280;14791;52.392;13.092;2023-08-06T10:34:56;99933.69;;;25.36;48.44
27304;BME280;14791;52.392;13.092;2023-08-06T10:37:36;99936.52;;;25.38;48.55
27304;BME280;14791;52.392;13.092;2023-08-06T10:40:07;99931.16;;;25.41;48.53
27304;BME280;14791;52.392;13.092;2023-08-06T10:42:36;99934.19;;;25.42;48.53
27304;BME280;14791;52.392;13.092;2023-08-06T10:45:20;99921.45;;;25.45;48.70
27304;BME280;14791;52.392;13.092;2023-08-06T10:47:51;99924.73;;;25.51;48.60
27304;BME280;14791;52.392;13.092;2023-08-06T10:50:20;99921.45;;;25.52;48.62
27304;BME280;14791;52.392;13.092;2023-08-06T10:52:50;99920.19;;;25.54;48.34
27304;BME280;14791;52.392;13.092;2023-08-06T10:55:26;99920.30;;;25.57;48.30
27304;BME280;14791;52.392;13.092;2023-08-06T10:57:56;99923.02;;;25.57;48.22
27304;BME280;14791;52.392;13.092;2023-08-06T11:00:26;99917.05;;;25.57;48.33
27304;BME280;14791;52.392;13.092;2023-08-06T11:02:55;99913.25;;;25.58;48.30
27304;BME280;14791;52.392;13.092;2023-08-06T11:05:24;99907.05;;;25.60;48.17
27304;BME280;14791;52.392;13.092;2023-08-06T11:07:53;99905.25;;;25.63;48.45
27304;BME280;14791;52.392;13.092;2023-08-06T11:10:22;99910.91;;;25.68;48.34
27304;BME280;14791;52.392;13.092;2023-08-06T11:12:51;99896.84;;;25.72;48.74
27304;BME280;14791;52.392;13.092;2023-08-06T11:15:21;99900.80;;;25.76;48.13
27304;BME280;14791;52.392;13.092;2023-08-06T11:17:50;99903.13;;;25.79;47.95
27304;BME280;14791;52.392;13.092;2023-08-06T11:20:21;99897.96;;;25.80;47.95
27304;BME280;14791;52.392;13.092;2023-08-06T11:22:50;99893.75;;;25.84;48.04
27304;BME280;14791;52.392;13.092;2023-08-06T11:25:21;99887.67;;;25.88;48.00
27304;BME280;14791;52.392;13.092;2023-08-06T11:27:50;99891.42;;;25.94;47.86
27304;BME280;14791;52.392;13.092;2023-08-06T11:30:19;99884.77;;;25.99;47.89
27304;BME280;14791;52.392;13.092;2023-08-06T11:32:48;99882.97;;;26.02;47.68
27304;BME280;14791;52.392;13.092;2023-08-06T11:35:18;99876.22;;;26.05;47.70
27304;BME280;14791;52.392;13.092;2023-08-06T11:37:47;99875.19;;;26.06;47.75
27304;BME280;14791;52.392;13.092;2023-08-06T11:40:17;99874.65;;;26.06;47.67
27304;BME280;14791;52.392;13.092;2023-08-06T11:42:47;99866.44;;;26.06;47.62
27304;BME280;14791;52.392;13.092;2023-08-06T11:45:16;99867.27;;;26.07;47.54
27304;BME280;14791;52.392;13.092;2023-08-06T11:47:49;99865.70;;;26.08;47.61
27304;BME280;14791;52.392;13.092;2023-08-06T11:50:27;99863.26;;;26.09;47.44
27304;BME280;14791;52.392;13.092;2023-08-06T11:52:59;99855.05;;;26.09;47.34
27304;BME280;14791;52.392;13.092;2023-08-06T11:55:29;99856.56;;;26.05;47.40
27304;BME280;14791;52.392;13.092;2023-08-06T11:57:59;99853.50;;;26.04;47.42
27304;BME280;14791;52.392;13.092;2023-08-06T12:00:29;99846.66;;;26.04;47.31
27304;BME280;14791;52.392;13.092;2023-08-06T12:02:58;99847.11;;;26.01;47.36
27304;BME280;14791;52.392;13.092;2023-08-06T12:05:31;99847.11;;;26.01;47.29
27304;BME280;14791;52.392;13.092;2023-08-06T12:08:05;99841.84;;;26.00;47.30
27304;BME280;14791;52.392;13.092;2023-08-06T12:10:34;99840.70;;;25.98;47.39
27304;BME280;14791;52.392;13.092;2023-08-06T12:13:03;99837.23;;;26.00;47.18
27304;BME280;14791;52.392;13.092;2023-08-06T12:15:32;99837.23;;;26.00;47.16
27304;BME280;14791;52.392;13.092;2023-08-06T12:18:01;99830.69;;;26.01;47.10
27304;BME280;14791;52.392;13.092;2023-08-06T12:20:29;99826.88;;;26.02;47.17
27304;BME280;14791;52.392;13.092;2023-08-06T12:22:58;99823.11;;;26.03;47.21
27304;BME280;14791;52.392;13.092;2023-08-06T12:25:27;99824.03;;;26.06;47.26
27304;BME280;14791;52.392;13.092;2023-08-06T12:27:56;99830.75;;;26.10;47.31
27304;BME280;14791;52.392;13.092;2023-08-06T12:30:25;99833.37;;;26.15;47.21
27304;BME280;14791;52.392;13.092;2023-08-06T12:32:54;99830.48;;;26.19;47.25
27304;BME280;14791;52.392;13.092;2023-08-06T12:35:23;99831.20;;;26.23;47.22
27304;BME280;14791;52.392;13.092;2023-08-06T12:37:53;99836.65;;;26.30;47.17
27304;BME280;14791;52.392;13.092;2023-08-06T12:40:25;99836.61;;;26.37;47.02
27304;BME280;14791;52.392;13.092;2023-08-06T12:42:54;99830.48;;;26.41;47.00
27304;BME280;14791;52.392;13.092;2023-08-06T12:45:23;99827.59;;;26.45;46.89
27304;BME280;14791;52.392;13.092;2023-08-06T12:47:52;99828.75;;;26.47;46.69
27304;BME280;14791;52.392;13.092;2023-08-06T12:50:21;99832.94;;;26.49;46.63
27304;BME280;14791;52.392;13.092;2023-08-06T12:52:50;99833.56;;;26.51;46.36
27304;BME280;14791;52.392;13.092;2023-08-06T12:55:19;99838.21;;;26.51;46.29
27304;BME280;14791;52.392;13.092;2023-08-06T12:57:48;99842.83;;;26.50;46.20
27304;BME280;14791;52.392;13.092;2023-08-06T13:00:17;99843.98;;;26.52;46.18